createdAt,value
2017-08-29T00:01:31.610Z,8.60
2017-08-29T00:03:59.901Z,9.43
2017-08-29T00:06:28.207Z,13.00
2017-08-29T00:08:56.479Z,12.10
2017-08-29T00:11:24.838Z,8.50
2017-08-29T00:13:53.127Z,9.70
2017-08-29T00:16:21.356Z,10.00
2017-08-29T00:18:49.684Z,10.07
2017-08-29T00:21:17.953Z,9.47
2017-08-29T00:23:46.480Z,9.17
2017-08-29T00:26:15.604Z,9.40
2017-08-29T00:28:44.073Z,8.60
2017-08-29T00:31:12.462Z,10.63
2017-08-29T00:33:40.744Z,9.57
2017-08-29T00:36:09.770Z,8.00
2017-08-29T00:38:38.122Z,10.50
2017-08-29T00:41:06.408Z,9.20
2017-08-29T00:43:40.661Z,10.63
2017-08-29T00:46:09.007Z,11.37
2017-08-29T00:48:37.267Z,10.33
2017-08-29T00:51:06.302Z,12.60
2017-08-29T00:53:34.609Z,11.03
2017-08-29T00:56:02.856Z,10.17
2017-08-29T00:58:31.150Z,9.50
2017-08-29T01:00:59.435Z,10.03
2017-08-29T01:03:27.723Z,10.07
2017-08-29T01:05:56.085Z,11.03
2017-08-29T01:08:24.363Z,10.37
2017-08-29T01:10:52.662Z,10.17
2017-08-29T01:13:20.986Z,10.73
2017-08-29T01:15:49.356Z,9.60
2017-08-29T01:18:17.694Z,10.97
2017-08-29T01:20:45.984Z,11.57
2017-08-29T01:23:15.032Z,10.03
2017-08-29T01:25:43.380Z,10.47
2017-08-29T01:28:11.832Z,11.00
2017-08-29T01:30:40.094Z,10.13
2017-08-29T01:33:08.425Z,12.10
2017-08-29T01:35:36.739Z,12.43
2017-08-29T01:38:05.021Z,10.67
2017-08-29T01:40:33.456Z,11.50
2017-08-29T01:43:01.970Z,16.10
2017-08-29T01:45:30.211Z,10.67
2017-08-29T01:47:58.556Z,12.30
2017-08-29T01:50:26.843Z,11.57
2017-08-29T01:52:55.420Z,13.50
2017-08-29T01:55:25.277Z,11.10
2017-08-29T01:57:53.579Z,11.57
2017-08-29T02:00:21.906Z,14.60
2017-08-29T02:02:50.216Z,11.60
2017-08-29T02:05:18.986Z,11.57
2017-08-29T02:07:47.400Z,11.37
2017-08-29T02:10:16.393Z,11.33
2017-08-29T02:12:44.697Z,11.17
2017-08-29T02:15:13.045Z,13.63
2017-08-29T02:17:41.374Z,11.90
2017-08-29T02:20:09.656Z,10.73
2017-08-29T02:22:37.960Z,11.40
2017-08-29T02:25:06.402Z,10.50
2017-08-29T02:27:34.805Z,12.03
2017-08-29T02:30:03.058Z,13.13
2017-08-29T02:32:31.323Z,11.57
2017-08-29T02:34:59.639Z,12.30
2017-08-29T02:37:28.048Z,11.63
2017-08-29T02:39:56.328Z,10.43
2017-08-29T02:42:24.587Z,13.13
2017-08-29T02:44:53.741Z,12.10
2017-08-29T02:47:22.017Z,12.00
2017-08-29T02:49:50.301Z,12.47
2017-08-29T02:52:18.625Z,12.80
2017-08-29T02:54:46.908Z,12.63
2017-08-29T02:57:15.179Z,10.17
2017-08-29T02:59:43.477Z,11.37
2017-08-29T03:02:11.730Z,11.53
2017-08-29T03:04:40.012Z,11.83
2017-08-29T03:07:09.070Z,11.50
2017-08-29T03:09:37.338Z,11.40
2017-08-29T03:12:05.607Z,13.47
2017-08-29T03:14:33.996Z,11.87
2017-08-29T03:17:02.341Z,12.10
2017-08-29T03:19:30.591Z,12.60
2017-08-29T03:21:58.857Z,14.53
2017-08-29T03:24:27.166Z,12.03
2017-08-29T03:26:55.417Z,11.60
2017-08-29T03:29:23.695Z,15.70
2017-08-29T03:31:51.971Z,11.83
2017-08-29T03:34:20.269Z,12.00
2017-08-29T03:36:49.305Z,11.73
2017-08-29T03:39:17.559Z,11.40
2017-08-29T03:41:45.855Z,13.57
2017-08-29T03:44:14.140Z,12.60
2017-08-29T03:46:42.406Z,12.50
2017-08-29T03:49:10.803Z,12.40
2017-08-29T03:51:39.077Z,12.87
2017-08-29T03:54:07.352Z,13.90
2017-08-29T03:56:35.764Z,15.43
2017-08-29T03:59:04.915Z,16.90
2017-08-29T04:01:33.223Z,14.43
2017-08-29T04:04:01.489Z,13.47
2017-08-29T04:06:29.792Z,12.90
2017-08-29T04:08:58.063Z,19.30
2017-08-29T04:11:26.319Z,14.53
2017-08-29T04:13:54.670Z,13.70
2017-08-29T04:16:22.983Z,16.33
2017-08-29T04:18:51.993Z,14.00
2017-08-29T04:21:20.271Z,15.57
2017-08-29T04:23:48.589Z,14.73
2017-08-29T04:26:16.876Z,13.97
2017-08-29T04:28:45.127Z,14.43
2017-08-29T04:31:13.474Z,12.70
2017-08-29T04:33:41.826Z,13.33
2017-08-29T04:36:10.107Z,14.33
2017-08-29T04:38:38.380Z,13.17
2017-08-29T04:41:06.685Z,13.43
2017-08-29T04:43:34.930Z,13.97
2017-08-29T04:46:03.217Z,14.13
2017-08-29T04:48:31.592Z,15.37
2017-08-29T04:50:59.924Z,13.30
2017-08-29T04:53:28.226Z,13.40
2017-08-29T04:55:56.512Z,16.50
2017-08-29T04:58:24.839Z,16.43
2017-08-29T05:00:53.876Z,17.17
2017-08-29T05:03:23.103Z,30.10
2017-08-29T05:05:51.398Z,37.07
2017-08-29T05:08:19.698Z,12.97
2017-08-29T05:10:48.213Z,12.60
2017-08-29T05:13:16.818Z,12.67
2017-08-29T05:15:45.229Z,13.87
2017-08-29T05:18:13.520Z,18.33
2017-08-29T05:20:41.820Z,16.30
2017-08-29T05:23:10.060Z,16.33
2017-08-29T05:25:38.394Z,18.77
2017-08-29T05:28:06.836Z,13.80
2017-08-29T05:30:35.287Z,14.80
2017-08-29T05:33:03.595Z,15.50
2017-08-29T05:35:32.688Z,13.33
2017-08-29T05:38:01.143Z,14.77
2017-08-29T05:40:29.395Z,28.40
2017-08-29T05:42:57.661Z,14.87
2017-08-29T05:45:25.955Z,15.80
2017-08-29T05:47:54.240Z,14.93
2017-08-29T05:50:22.567Z,15.50
2017-08-29T05:52:50.893Z,17.30
2017-08-29T05:55:19.163Z,14.63
2017-08-29T05:57:47.438Z,15.30
2017-08-29T06:00:15.751Z,13.00
2017-08-29T06:02:44.054Z,14.83
2017-08-29T06:05:12.526Z,34.53
2017-08-29T06:07:40.779Z,17.00
2017-08-29T06:10:09.081Z,15.80
2017-08-29T06:12:37.389Z,22.10
2017-08-29T06:15:05.753Z,33.80
2017-08-29T06:17:34.034Z,12.17
2017-08-29T06:20:02.304Z,11.50
2017-08-29T06:22:30.623Z,12.53
2017-08-29T06:24:59.169Z,12.43
2017-08-29T06:27:27.481Z,14.30
2017-08-29T06:29:55.761Z,12.20
2017-08-29T06:32:24.038Z,13.93
2017-08-29T06:34:52.365Z,15.63
2017-08-29T06:37:20.618Z,13.83
2017-08-29T06:39:48.885Z,12.60
2017-08-29T06:42:17.164Z,11.90
2017-08-29T06:44:45.556Z,20.07
2017-08-29T06:47:14.312Z,13.93
2017-08-29T06:49:42.573Z,12.67
2017-08-29T06:52:10.858Z,12.63
2017-08-29T06:54:39.157Z,13.23
2017-08-29T06:57:07.454Z,13.27
2017-08-29T06:59:35.720Z,20.63
2017-08-29T07:02:04.175Z,12.70
2017-08-29T07:04:33.292Z,11.53
2017-08-29T07:07:01.581Z,14.57
2017-08-29T07:09:29.956Z,12.17
2017-08-29T07:11:58.207Z,14.17
2017-08-29T07:14:26.685Z,14.90
2017-08-29T07:16:54.974Z,11.53
2017-08-29T07:19:23.544Z,11.80
2017-08-29T07:21:51.913Z,12.70
2017-08-29T07:24:20.257Z,11.50
2017-08-29T07:27:06.310Z,11.83
2017-08-29T07:29:34.571Z,12.57
2017-08-29T07:32:02.915Z,13.23
2017-08-29T07:34:31.975Z,11.53
2017-08-29T07:37:00.256Z,13.10
2017-08-29T07:39:28.515Z,13.33
2017-08-29T07:41:56.943Z,12.13
2017-08-29T07:44:25.301Z,11.07
2017-08-29T07:46:53.796Z,11.07
2017-08-29T07:49:22.412Z,11.20
2017-08-29T07:51:50.813Z,11.57
2017-08-29T07:54:19.261Z,11.90
2017-08-29T07:56:47.669Z,11.53
2017-08-29T07:59:16.134Z,12.93
2017-08-29T08:01:44.456Z,12.50
2017-08-29T08:04:12.741Z,11.80
2017-08-29T08:06:41.009Z,14.20
2017-08-29T08:09:09.438Z,12.03
2017-08-29T08:11:37.755Z,12.90
2017-08-29T08:14:06.069Z,11.80
2017-08-29T08:16:34.415Z,12.10
2017-08-29T08:19:02.712Z,15.30
2017-08-29T08:21:30.992Z,12.83
2017-08-29T08:24:00.244Z,17.30
2017-08-29T08:26:28.548Z,15.70
2017-08-29T08:28:56.864Z,12.73
2017-08-29T08:31:25.174Z,11.20
2017-08-29T08:33:53.429Z,14.43
2017-08-29T08:36:21.729Z,13.50
2017-08-29T08:38:50.044Z,12.70
2017-08-29T08:41:18.380Z,12.10
2017-08-29T08:43:46.776Z,16.47
2017-08-29T08:46:15.309Z,13.50
2017-08-29T08:48:43.576Z,12.33
2017-08-29T08:51:11.877Z,12.47
2017-08-29T08:53:40.159Z,15.33
2017-08-29T08:56:08.630Z,11.67
2017-08-29T08:58:36.904Z,12.27
2017-08-29T09:01:06.047Z,14.03
2017-08-29T09:03:34.359Z,13.03
2017-08-29T09:06:02.732Z,13.83
2017-08-29T09:08:31.120Z,11.60
2017-08-29T09:10:59.421Z,13.70
2017-08-29T09:13:27.763Z,14.60
2017-08-29T09:15:56.061Z,22.10
2017-08-29T09:18:24.542Z,14.23
2017-08-29T09:20:53.591Z,15.50
2017-08-29T09:23:22.063Z,14.03
2017-08-29T09:28:50.538Z,15.10
2017-08-29T09:31:18.925Z,16.17
2017-08-29T09:33:47.609Z,14.40
2017-08-29T09:36:16.035Z,15.30
2017-08-29T09:38:44.295Z,13.73
2017-08-29T09:41:13.323Z,13.53
2017-08-29T09:43:41.616Z,11.80
2017-08-29T09:46:10.183Z,11.83
2017-08-29T09:48:38.440Z,12.70
2017-08-29T09:51:06.802Z,12.83
2017-08-29T09:53:35.081Z,11.50
2017-08-29T09:56:03.434Z,13.13
2017-08-29T09:58:31.773Z,15.03
2017-08-29T10:01:00.076Z,12.83
2017-08-29T10:03:28.387Z,10.83
2017-08-29T10:05:56.717Z,11.07
2017-08-29T10:08:25.023Z,13.40
2017-08-29T10:10:53.376Z,11.93
2017-08-29T10:13:21.633Z,14.40
2017-08-29T10:15:50.182Z,11.33
2017-08-29T10:18:18.476Z,12.00
2017-08-29T10:20:46.735Z,12.37
2017-08-29T10:23:15.067Z,12.83
2017-08-29T10:25:43.350Z,12.73
2017-08-29T10:28:11.602Z,12.07
2017-08-29T10:30:40.013Z,13.30
2017-08-29T10:33:08.292Z,13.00
2017-08-29T10:35:36.835Z,12.30
2017-08-29T10:38:05.998Z,12.67
2017-08-29T10:40:34.281Z,11.97
2017-08-29T10:43:02.624Z,12.03
2017-08-29T10:45:31.860Z,11.97
2017-08-29T10:48:00.345Z,12.80
2017-08-29T10:50:28.673Z,13.23
2017-08-29T10:52:56.952Z,11.30
2017-08-29T10:55:25.272Z,10.60
2017-08-29T10:57:53.551Z,10.77
2017-08-29T11:00:21.827Z,9.90
2017-08-29T11:02:50.099Z,9.57
2017-08-29T11:05:18.456Z,10.17
2017-08-29T11:07:46.912Z,11.10
2017-08-29T11:10:15.290Z,9.97
2017-08-29T11:12:43.565Z,9.27
2017-08-29T11:15:11.936Z,10.73
2017-08-29T11:17:40.447Z,9.07
2017-08-29T11:20:09.088Z,9.63
2017-08-29T11:22:37.864Z,9.70
2017-08-29T11:25:06.424Z,13.23
2017-08-29T11:27:34.858Z,9.73
2017-08-29T11:30:03.251Z,9.60
2017-08-29T11:32:31.758Z,9.17
2017-08-29T11:35:00.249Z,9.10
2017-08-29T11:37:28.793Z,10.37
2017-08-29T11:39:57.230Z,10.00
2017-08-29T11:42:25.638Z,8.77
2017-08-29T11:44:54.310Z,12.03
2017-08-29T11:47:23.631Z,11.43
2017-08-29T11:49:52.179Z,9.00
2017-08-29T11:52:20.787Z,8.33
2017-08-29T11:54:49.714Z,8.03
2017-08-29T11:57:18.342Z,8.57
2017-08-29T11:59:46.768Z,7.60
2017-08-29T12:02:15.292Z,9.80
2017-08-29T12:04:43.637Z,8.50
2017-08-29T12:07:12.176Z,7.80
2017-08-29T12:09:40.588Z,8.53
2017-08-29T12:12:09.053Z,7.80
2017-08-29T12:14:37.306Z,8.03
2017-08-29T12:17:05.630Z,10.00
2017-08-29T12:19:33.962Z,9.20
2017-08-29T12:22:02.292Z,10.13
2017-08-29T12:24:31.456Z,9.37
2017-08-29T12:26:59.801Z,9.73
2017-08-29T12:29:28.144Z,8.50
2017-08-29T12:31:57.172Z,7.87
2017-08-29T12:34:25.593Z,8.03
2017-08-29T12:36:53.927Z,8.70
2017-08-29T12:39:22.344Z,9.67
2017-08-29T12:41:50.648Z,11.07
2017-08-29T12:44:18.944Z,9.40
2017-08-29T12:46:47.338Z,11.50
2017-08-29T12:49:16.273Z,10.30
2017-08-29T12:51:44.599Z,9.13
2017-08-29T12:54:12.921Z,8.00
2017-08-29T12:56:41.475Z,8.37
2017-08-29T12:59:09.788Z,9.07
2017-08-29T13:01:38.792Z,16.83
2017-08-29T13:04:07.362Z,8.93
2017-08-29T13:06:35.850Z,8.90
2017-08-29T13:09:04.154Z,9.20
2017-08-29T13:11:32.396Z,8.13
2017-08-29T13:14:00.700Z,7.10
2017-08-29T13:16:29.122Z,7.13
2017-08-29T13:18:57.648Z,7.77
2017-08-29T13:21:26.025Z,6.83
2017-08-29T13:23:54.325Z,9.43
2017-08-29T13:29:17.172Z,7.90
2017-08-29T13:31:45.452Z,7.90
2017-08-29T13:34:13.745Z,8.37
2017-08-29T13:36:42.091Z,8.30
2017-08-29T13:39:10.442Z,7.67
2017-08-29T13:41:39.618Z,8.07
2017-08-29T13:44:07.950Z,7.33
2017-08-29T13:46:36.285Z,7.13
2017-08-29T13:49:04.743Z,10.40
2017-08-29T13:51:33.057Z,7.87
2017-08-29T13:54:02.122Z,7.93
2017-08-29T13:56:30.516Z,7.60
2017-08-29T13:58:59.009Z,7.90
2017-08-29T14:01:27.393Z,7.83
2017-08-29T14:03:55.671Z,7.27
2017-08-29T14:06:24.003Z,29.23
2017-08-29T14:08:52.456Z,8.50
2017-08-29T14:11:20.783Z,7.40
2017-08-29T14:13:49.051Z,7.83
2017-08-29T14:16:18.054Z,8.10
2017-08-29T14:18:46.422Z,7.87
2017-08-29T14:21:14.796Z,7.20
2017-08-29T14:23:45.077Z,7.77
2017-08-29T14:26:13.481Z,8.40
2017-08-29T14:28:43.887Z,9.43
2017-08-29T14:31:13.289Z,8.50
2017-08-29T14:33:41.564Z,9.00
2017-08-29T14:36:09.899Z,8.77
2017-08-29T14:38:38.380Z,8.63
2017-08-29T14:41:06.805Z,9.20
2017-08-29T14:43:35.065Z,9.27
2017-08-29T14:46:03.417Z,8.13
2017-08-29T14:48:43.833Z,8.17
2017-08-29T14:51:12.137Z,10.83
2017-08-29T14:53:40.482Z,7.90
2017-08-29T14:56:09.040Z,9.17
2017-08-29T14:58:38.439Z,8.23
2017-08-29T15:01:06.729Z,11.10
2017-08-29T15:03:36.365Z,9.73
2017-08-29T15:06:04.634Z,8.80
2017-08-29T15:08:33.863Z,8.63
2017-08-29T15:11:02.300Z,9.83
2017-08-29T15:13:30.559Z,10.37
2017-08-29T15:15:58.893Z,9.77
2017-08-29T15:18:27.254Z,7.50
2017-08-29T15:20:55.554Z,8.90
2017-08-29T15:23:23.876Z,9.57
2017-08-29T15:25:53.303Z,9.63
2017-08-29T15:28:21.677Z,9.83
2017-08-29T15:30:50.921Z,9.53
2017-08-29T15:33:20.547Z,9.50
2017-08-29T15:35:50.879Z,9.67
2017-08-29T15:38:19.227Z,9.33
2017-08-29T15:40:47.499Z,8.80
2017-08-29T15:43:15.773Z,8.70
2017-08-29T15:45:44.241Z,8.73
2017-08-29T15:48:13.310Z,10.17
2017-08-29T15:50:42.389Z,9.67
2017-08-29T15:53:10.827Z,8.90
2017-08-29T15:55:39.082Z,8.90
2017-08-29T15:58:07.423Z,8.07
2017-08-29T16:00:35.687Z,8.47
2017-08-29T16:03:04.006Z,7.53
2017-08-29T16:05:32.476Z,9.50
2017-08-29T16:08:01.334Z,8.80
2017-08-29T16:10:29.673Z,8.20
2017-08-29T16:12:58.749Z,9.20
2017-08-29T16:15:27.158Z,7.93
2017-08-29T16:17:55.536Z,8.50
2017-08-29T16:20:23.873Z,9.37
2017-08-29T16:23:02.204Z,8.80
2017-08-29T16:25:30.496Z,8.90
2017-08-29T16:27:58.822Z,11.27
2017-08-29T16:30:27.177Z,9.83
2017-08-29T16:32:55.651Z,11.00
2017-08-29T16:35:23.986Z,10.13
2017-08-29T16:37:52.306Z,10.13
2017-08-29T16:40:20.606Z,10.03
2017-08-29T16:42:48.910Z,8.90
2017-08-29T16:45:17.261Z,8.53
2017-08-29T16:47:45.571Z,8.83
2017-08-29T16:50:14.108Z,7.90
2017-08-29T16:52:42.431Z,10.27
2017-08-29T16:55:10.804Z,9.50
2017-08-29T16:57:39.173Z,8.57
2017-08-29T17:00:07.523Z,9.07
2017-08-29T17:02:35.912Z,8.90
2017-08-29T17:05:05.255Z,9.47
2017-08-29T17:07:33.762Z,10.27
2017-08-29T17:10:02.096Z,13.10
2017-08-29T17:12:30.428Z,10.13
2017-08-29T17:14:58.980Z,8.13
2017-08-29T17:17:27.278Z,9.50
2017-08-29T17:19:56.150Z,8.17
2017-08-29T17:22:24.481Z,8.97
2017-08-29T17:24:52.809Z,11.07
2017-08-29T17:27:21.366Z,8.83
2017-08-29T17:29:49.737Z,9.27
2017-08-29T17:32:18.103Z,9.43
2017-08-29T17:34:46.390Z,10.17
2017-08-29T17:37:14.703Z,7.83
2017-08-29T17:39:43.036Z,8.90
2017-08-29T17:42:11.445Z,10.37
2017-08-29T17:44:39.928Z,8.03
2017-08-29T17:47:08.496Z,8.50
2017-08-29T17:49:36.971Z,8.07
2017-08-29T17:52:05.389Z,8.87
2017-08-29T17:54:33.796Z,10.93
2017-08-29T17:57:02.335Z,8.37
2017-08-29T17:59:30.728Z,8.23
2017-08-29T18:01:59.966Z,6.90
2017-08-29T18:04:28.374Z,7.33
2017-08-29T18:06:56.968Z,9.03
2017-08-29T18:09:25.348Z,8.17
2017-08-29T18:11:53.697Z,7.73
2017-08-29T18:14:22.120Z,7.30
2017-08-29T18:16:50.441Z,7.93
2017-08-29T18:19:18.872Z,8.27
2017-08-29T18:21:47.422Z,8.63
2017-08-29T18:24:15.776Z,7.07
2017-08-29T18:26:45.366Z,11.23
2017-08-29T18:29:13.977Z,7.57
2017-08-29T18:31:42.769Z,9.10
2017-08-29T18:34:11.333Z,7.87
2017-08-29T18:36:39.688Z,8.27
2017-08-29T18:39:08.101Z,11.00
2017-08-29T18:41:36.481Z,9.90
2017-08-29T18:44:05.473Z,8.20
2017-08-29T18:46:34.664Z,8.55
2017-08-29T18:49:02.970Z,8.30
2017-08-29T18:51:31.822Z,8.97
2017-08-29T18:54:00.179Z,8.80
2017-08-29T18:56:29.097Z,8.10
2017-08-29T18:58:57.574Z,7.80
2017-08-29T19:01:25.982Z,8.33
2017-08-29T19:03:54.309Z,7.57
2017-08-29T19:06:22.779Z,8.43
2017-08-29T19:08:51.118Z,8.63
2017-08-29T19:11:19.478Z,7.73
2017-08-29T19:13:47.900Z,8.03
2017-08-29T19:16:17.732Z,9.53
2017-08-29T19:21:46.387Z,8.43
2017-08-29T19:24:15.586Z,7.63
2017-08-29T19:26:44.047Z,11.53
2017-08-29T19:29:12.601Z,8.33
2017-08-29T19:34:42.041Z,10.03
2017-08-29T19:37:11.360Z,15.83
2017-08-29T19:39:40.289Z,8.00
2017-08-29T19:42:08.634Z,8.77
2017-08-29T19:44:39.107Z,10.77
2017-08-29T19:47:07.947Z,8.33
2017-08-29T19:49:36.230Z,9.30
2017-08-29T19:52:09.316Z,8.60
2017-08-29T19:54:38.186Z,8.10
2017-08-29T19:57:06.545Z,9.47
2017-08-29T19:59:35.478Z,9.80
2017-08-29T20:02:04.318Z,9.03
2017-08-29T20:04:34.327Z,15.23
2017-08-29T20:07:03.217Z,8.80
2017-08-29T20:09:34.031Z,9.37
2017-08-29T20:12:03.807Z,7.87
2017-08-29T20:14:34.789Z,7.90
2017-08-29T20:17:12.033Z,10.07
2017-08-29T20:19:43.914Z,9.60
2017-08-29T20:22:12.468Z,9.13
2017-08-29T20:24:42.305Z,8.90
2017-08-29T20:27:13.142Z,10.40
2017-08-29T20:29:42.437Z,8.90
2017-08-29T20:32:11.712Z,9.27
2017-08-29T20:34:42.311Z,8.67
2017-08-29T20:37:11.675Z,8.30
2017-08-29T20:39:40.607Z,8.80
2017-08-29T20:42:09.209Z,9.43
2017-08-29T20:44:38.519Z,8.80
2017-08-29T20:47:07.429Z,8.40
2017-08-29T20:49:37.722Z,9.20
2017-08-29T20:52:08.550Z,8.87
2017-08-29T20:54:37.650Z,10.10
2017-08-29T20:57:06.806Z,9.50
2017-08-29T20:59:35.230Z,7.77
2017-08-29T21:02:03.474Z,9.47
2017-08-29T21:04:31.906Z,8.23
2017-08-29T21:07:00.236Z,8.70
2017-08-29T21:09:29.289Z,8.93
2017-08-29T21:11:57.728Z,8.70
2017-08-29T21:14:26.050Z,9.53
2017-08-29T21:16:54.376Z,8.30
2017-08-29T21:19:22.679Z,9.20
2017-08-29T21:21:51.095Z,9.63
2017-08-29T21:24:19.502Z,9.53
2017-08-29T21:26:47.759Z,8.10
2017-08-29T21:29:16.085Z,8.50
2017-08-29T21:31:44.412Z,8.13
2017-08-29T21:34:12.675Z,12.70
2017-08-29T21:36:41.156Z,10.23
2017-08-29T21:39:09.472Z,8.57
2017-08-29T21:41:37.773Z,8.20
2017-08-29T21:44:06.005Z,8.10
2017-08-29T21:46:35.190Z,11.03
2017-08-29T21:49:03.448Z,7.90
2017-08-29T21:51:32.495Z,7.57
2017-08-29T21:54:00.812Z,7.37
2017-08-29T21:56:29.098Z,7.33
2017-08-29T21:58:57.587Z,7.63
2017-08-29T22:01:25.920Z,9.60
2017-08-29T22:03:54.247Z,7.63
2017-08-29T22:06:22.523Z,8.80
2017-08-29T22:08:51.721Z,7.60
2017-08-29T22:11:20.077Z,8.13
2017-08-29T22:13:48.332Z,9.53
2017-08-29T22:16:16.571Z,7.37
2017-08-29T22:18:45.052Z,9.00
2017-08-29T22:21:14.063Z,8.60
2017-08-29T22:23:42.363Z,11.03
2017-08-29T22:26:10.880Z,8.57
2017-08-29T22:28:39.163Z,7.17
2017-08-29T22:31:08.208Z,7.40
2017-08-29T22:33:36.514Z,8.70
2017-08-29T22:36:04.831Z,8.47
2017-08-29T22:38:33.072Z,8.17
2017-08-29T22:41:01.343Z,7.77
2017-08-29T22:43:29.822Z,7.80
2017-08-29T22:45:58.039Z,8.60
2017-08-29T22:48:26.341Z,7.50
2017-08-29T22:50:55.243Z,7.70
2017-08-29T22:53:23.814Z,7.93
2017-08-29T22:55:52.094Z,7.73
2017-08-29T22:58:20.401Z,7.60
2017-08-29T23:00:48.844Z,8.10
2017-08-29T23:03:17.139Z,8.70
2017-08-29T23:05:45.507Z,8.17
2017-08-29T23:08:13.814Z,8.13
2017-08-29T23:10:42.097Z,7.57
2017-08-29T23:13:10.396Z,7.73
2017-08-29T23:15:38.732Z,8.10
2017-08-29T23:18:07.014Z,8.03
2017-08-29T23:20:35.367Z,7.77
2017-08-29T23:23:03.653Z,8.90
2017-08-29T23:25:31.972Z,8.30
2017-08-29T23:28:00.244Z,8.20
2017-08-29T23:30:28.725Z,8.40
2017-08-29T23:32:56.973Z,8.20
2017-08-29T23:35:25.255Z,8.57
2017-08-29T23:37:53.596Z,8.90
2017-08-29T23:40:21.934Z,7.90
2017-08-29T23:42:50.273Z,7.57
2017-08-29T23:45:18.535Z,8.90
2017-08-29T23:47:46.816Z,8.50
2017-08-29T23:50:15.053Z,9.17
2017-08-29T23:52:43.373Z,7.27
2017-08-29T23:55:11.766Z,7.83
2017-08-29T23:57:40.011Z,7.07
